Flight Number: EUR1419 Duration: 5:00
Departure: Cairo Int'll Airport (HECA) at 08:00 Distance: 1891 Nm
Arrival: Gatwick Airport (EGKK) at 13:00 Equipment: B757-200

Weather Information
Cairo Airport, Egypt (HECA) 30-08N 031-24E 74M Jan 22, 2018 - 03:00 AM EST / 2018.01.22 0800 UTC
Wind: from the SSW (200 degrees) at 15 MPH (13 KT):0
Visibility: 2 mile(s):0 Weather: sand Temperature: 60 F (16 C) Dew Point: 37 F (3 C) Relative Humidity: 41% Pressure (altimeter): 29.91 in. Hg (1013 hPa)
ob: HECA 220800Z 20013KT 4000 SA NSC 16/03 Q1013 NOSIG cycle: 8
Sunrise: 04:52 Sunset: 15:19 (UTC)

London / Gatwick Airport, United Kingdom (EGKK) 51-09N 000-11W 0M Jan 22, 2018 - 02:50 AM EST / 2018.01.22 0750 UTC
Wind: from the WNW (290 degrees) at 6 MPH (5 KT):0
Visibility: 5 mile(s):0
Sky conditions: mostly clear Weather: light rain Temperature: 46 F (8 C) Dew Point: 44 F (7 C) Relative Humidity: 93% Pressure (altimeter): 29.77 in. Hg (1008 hPa)
ob: EGKK 220750Z 29005KT 9000 -RA FEW027 08/07 Q1008 cycle: 8
Sunrise: 07:54 Sunset: 16:30 (UTC)

TAF:2018/01/22 06:15 TAF EGKK 220509Z 2206/2312 26012KT 9999 SCT030 PROB30 TEMPO 2206/2210 8000 -RA BKN014 BECMG 2221/2224 20008KT PROB30 TEMPO 2303/2305 BKN008 BECMG 2305/2308 6000 -RA BKN008 TEMPO 2307/2312 22015G25KT 3000 RADZ BKN004

Previous Pireps for this route
Date Aircraft Flight time Fuel used Landing rate On time
2012-08-18B7775.00820000No
2012-08-27B77704.4361634-679No
2012-09-08B77704.3656427-466No
2012-09-10B7774.30800000No
2013-10-04A32105.1418463-423Charter
2013-12-05B73705.2440782-364Charter
2014-01-20B757-20004.5732595-334No
2014-02-16B77704.4754139-282Yes
2014-04-13B757-20005.5239730-288No
2014-05-22B757-20004.4132526-130Yes
2014-07-19B757-20004.4143942-782Yes
2014-07-21B757-20004.2929935-165Yes
2014-08-07B77704.3452656-152Yes
2014-08-21B757-20004.5135056-241No
2014-09-19B757-20004.4131107-191Yes
2014-10-06B757-20004.2929747-430Yes
2014-10-14B7774.15882090Yes
2014-12-19B757-20004.5331409-185Yes
2015-02-18B757-2005.0242164-610No
2015-04-19B757-20004.5130532-161Yes
2015-05-04B757-20005.0442854-6Charter
2015-12-29B757-20004.3928400-188Yes
2016-02-13B77704.4062643-263Yes
2016-07-26B7774.252156500Yes
2016-08-29B77704.3971901-413Charter
2017-06-04B74700Charter
2017-06-04B74700Charter
2017-06-07B74704.16990760Charter
2017-06-11B74704.2010051150Charter
(pireps marked green are flown by you)

Route map